sensor_id;sensor_type;location;lat;lon;timestamp;temperature;humidity
64620;DHT22;51029;51.058;13.826;2023-04-15T00:02:22;7.40;99.90
64620;DHT22;51029;51.058;13.826;2023-04-15T00:04:48;7.40;99.90
64620;DHT22;51029;51.058;13.826;2023-04-15T00:07:13;7.40;99.90
64620;DHT22;51029;51.058;13.826;2023-04-15T00:09:40;7.40;99.90
64620;DHT22;51029;51.058;13.826;2023-04-15T00:12:06;7.40;99.90
64620;DHT22;51029;51.058;13.826;2023-04-15T00:14:33;7.40;99.90
64620;DHT22;51029;51.058;13.826;2023-04-15T00:17:00;7.40;99.90
64620;DHT22;51029;51.058;13.826;2023-04-15T00:19:25;7.40;99.90
64620;DHT22;51029;51.058;13.826;2023-04-15T00:21:51;7.40;99.90
64620;DHT22;51029;51.058;13.826;2023-04-15T00:24:16;7.40;99.90
64620;DHT22;51029;51.058;13.826;2023-04-15T00:26:42;7.30;99.90
64620;DHT22;51029;51.058;13.826;2023-04-15T00:29:07;7.30;99.90
64620;DHT22;51029;51.058;13.826;2023-04-15T00:31:33;7.30;99.90
64620;DHT22;51029;51.058;13.826;2023-04-15T00:33:59;7.30;99.90
64620;DHT22;51029;51.058;13.826;2023-04-15T00:36:24;7.40;99.90
64620;DHT22;51029;51.058;13.826;2023-04-15T00:38:50;7.40;99.90
64620;DHT22;51029;51.058;13.826;2023-04-15T00:41:17;7.40;99.90
64620;DHT22;51029;51.058;13.826;2023-04-15T00:43:43;7.50;99.90
64620;DHT22;51029;51.058;13.826;2023-04-15T00:46:12;7.50;99.90
64620;DHT22;51029;51.058;13.826;2023-04-15T00:48:38;7.50;99.90
64620;DHT22;51029;51.058;13.826;2023-04-15T00:51:04;7.50;99.90
64620;DHT22;51029;51.058;13.826;2023-04-15T00:53:31;7.40;99.90
64620;DHT22;51029;51.058;13.826;2023-04-15T00:55:57;7.40;99.90
64620;DHT22;51029;51.058;13.826;2023-04-15T00:58:22;7.40;99.90
64620;DHT22;51029;51.058;13.826;2023-04-15T01:00:48;7.40;99.90
64620;DHT22;51029;51.058;13.826;2023-04-15T01:03:13;7.30;99.90
64620;DHT22;51029;51.058;13.826;2023-04-15T01:05:39;7.30;99.90
64620;DHT22;51029;51.058;13.826;2023-04-15T01:08:06;7.30;99.90
64620;DHT22;51029;51.058;13.826;2023-04-15T01:10:32;7.40;99.90
64620;DHT22;51029;51.058;13.826;2023-04-15T01:12:57;7.30;99.90
64620;DHT22;51029;51.058;13.826;2023-04-15T01:15:24;7.30;99.90
64620;DHT22;51029;51.058;13.826;2023-04-15T01:17:50;7.30;99.90
64620;DHT22;51029;51.058;13.826;2023-04-15T01:20:15;7.30;99.90
64620;DHT22;51029;51.058;13.826;2023-04-15T01:22:41;7.40;99.90
64620;DHT22;51029;51.058;13.826;2023-04-15T01:25:18;7.40;99.90
64620;DHT22;51029;51.058;13.826;2023-04-15T01:27:44;7.40;99.90
64620;DHT22;51029;51.058;13.826;2023-04-15T01:30:10;7.40;99.90
64620;DHT22;51029;51.058;13.826;2023-04-15T01:32:36;7.50;99.90
64620;DHT22;51029;51.058;13.826;2023-04-15T01:35:01;7.40;99.90
64620;DHT22;51029;51.058;13.826;2023-04-15T01:37:27;7.40;99.90
64620;DHT22;51029;51.058;13.826;2023-04-15T01:39:53;7.50;99.90
64620;DHT22;51029;51.058;13.826;2023-04-15T01:42:20;7.50;99.90
64620;DHT22;51029;51.058;13.826;2023-04-15T01:44:46;7.50;99.90
64620;DHT22;51029;51.058;13.826;2023-04-15T01:47:12;7.50;99.90
64620;DHT22;51029;51.058;13.826;2023-04-15T01:49:37;7.50;99.90
64620;DHT22;51029;51.058;13.826;2023-04-15T01:52:02;7.50;99.90
64620;DHT22;51029;51.058;13.826;2023-04-15T01:54:28;7.50;99.90
64620;DHT22;51029;51.058;13.826;2023-04-15T01:56:54;7.50;99.90
64620;DHT22;51029;51.058;13.826;2023-04-15T01:59:19;7.50;99.90
64620;DHT22;51029;51.058;13.826;2023-04-15T02:01:45;7.50;99.90
64620;DHT22;51029;51.058;13.826;2023-04-15T02:04:10;7.50;99.90
64620;DHT22;51029;51.058;13.826;2023-04-15T02:06:44;7.50;99.90
64620;DHT22;51029;51.058;13.826;2023-04-15T02:09:10;7.40;99.90
64620;DHT22;51029;51.058;13.826;2023-04-15T02:11:36;7.40;99.90
64620;DHT22;51029;51.058;13.826;2023-04-15T02:14:02;7.40;99.90
64620;DHT22;51029;51.058;13.826;2023-04-15T02:16:31;7.50;99.90
64620;DHT22;51029;51.058;13.826;2023-04-15T02:18:58;7.40;99.90
64620;DHT22;51029;51.058;13.826;2023-04-15T02:21:25;7.40;99.90
64620;DHT22;51029;51.058;13.826;2023-04-15T02:23:54;7.40;99.90
64620;DHT22;51029;51.058;13.826;2023-04-15T02:26:20;7.40;99.90
64620;DHT22;51029;51.058;13.826;2023-04-15T02:28:47;7.40;99.90
64620;DHT22;51029;51.058;13.826;2023-04-15T02:31:12;7.40;99.90
64620;DHT22;51029;51.058;13.826;2023-04-15T02:33:38;7.40;99.90
64620;DHT22;51029;51.058;13.826;2023-04-15T02:36:03;7.40;99.90
64620;DHT22;51029;51.058;13.826;2023-04-15T02:38:29;7.40;99.90
64620;DHT22;51029;51.058;13.826;2023-04-15T02:40:56;7.40;99.90
64620;DHT22;51029;51.058;13.826;2023-04-15T02:43:22;7.40;99.90
64620;DHT22;51029;51.058;13.826;2023-04-15T02:45:48;7.40;99.90
64620;DHT22;51029;51.058;13.826;2023-04-15T02:48:13;7.40;99.90
64620;DHT22;51029;51.058;13.826;2023-04-15T02:50:39;7.40;99.90
64620;DHT22;51029;51.058;13.826;2023-04-15T02:53:05;7.40;99.90
64620;DHT22;51029;51.058;13.826;2023-04-15T02:55:31;7.40;99.90
64620;DHT22;51029;51.058;13.826;2023-04-15T02:57:57;7.40;99.90
64620;DHT22;51029;51.058;13.826;2023-04-15T03:00:26;7.40;99.90
64620;DHT22;51029;51.058;13.826;2023-04-15T03:02:57;7.40;99.90
64620;DHT22;51029;51.058;13.826;2023-04-15T03:05:23;7.40;99.90
64620;DHT22;51029;51.058;13.826;2023-04-15T03:07:52;7.30;99.90
64620;DHT22;51029;51.058;13.826;2023-04-15T03:10:18;7.30;99.90
64620;DHT22;51029;51.058;13.826;2023-04-15T03:12:44;7.40;99.90
64620;DHT22;51029;51.058;13.826;2023-04-15T03:15:10;7.40;99.90
64620;DHT22;51029;51.058;13.826;2023-04-15T03:17:36;7.40;99.90
64620;DHT22;51029;51.058;13.826;2023-04-15T03:20:02;7.40;99.90
64620;DHT22;51029;51.058;13.826;2023-04-15T03:22:29;7.40;99.90
64620;DHT22;51029;51.058;13.826;2023-04-15T03:24:55;7.40;99.90
64620;DHT22;51029;51.058;13.826;2023-04-15T03:27:21;7.40;99.90
64620;DHT22;51029;51.058;13.826;2023-04-15T03:29:46;7.40;99.90
64620;DHT22;51029;51.058;13.826;2023-04-15T03:32:12;7.40;99.90
64620;DHT22;51029;51.058;13.826;2023-04-15T03:34:39;7.40;99.90
64620;DHT22;51029;51.058;13.826;2023-04-15T03:37:05;7.40;99.90
64620;DHT22;51029;51.058;13.826;2023-04-15T03:39:31;7.40;99.90
64620;DHT22;51029;51.058;13.826;2023-04-15T03:41:57;7.40;99.90
64620;DHT22;51029;51.058;13.826;2023-04-15T03:44:25;7.40;99.90
64620;DHT22;51029;51.058;13.826;2023-04-15T03:46:50;7.40;99.90
64620;DHT22;51029;51.058;13.826;2023-04-15T03:49:16;7.40;99.90
64620;DHT22;51029;51.058;13.826;2023-04-15T03:51:41;7.40;99.90
64620;DHT22;51029;51.058;13.826;2023-04-15T03:54:07;7.40;99.90
64620;DHT22;51029;51.058;13.826;2023-04-15T03:56:32;7.40;99.90
64620;DHT22;51029;51.058;13.826;2023-04-15T03:58:58;7.40;99.90
64620;DHT22;51029;51.058;13.826;2023-04-15T04:01:24;7.30;99.90
64620;DHT22;51029;51.058;13.826;2023-04-15T04:03:49;7.40;99.90
64620;DHT22;51029;51.058;13.826;2023-04-15T04:06:15;7.40;99.90
64620;DHT22;51029;51.058;13.826;2023-04-15T04:08:41;7.50;99.90
64620;DHT22;51029;51.058;13.826;2023-04-15T04:11:06;7.40;99.90
64620;DHT22;51029;51.058;13.826;2023-04-15T04:13:32;7.50;99.90
64620;DHT22;51029;51.058;13.826;2023-04-15T04:15:57;7.50;99.90
64620;DHT22;51029;51.058;13.826;2023-04-15T04:18:23;7.50;99.90
64620;DHT22;51029;51.058;13.826;2023-04-15T04:20:48;7.40;99.90
64620;DHT22;51029;51.058;13.826;2023-04-15T04:23:14;7.40;99.90
64620;DHT22;51029;51.058;13.826;2023-04-15T04:25:39;7.40;99.90
64620;DHT22;51029;51.058;13.826;2023-04-15T04:28:05;7.40;99.90
64620;DHT22;51029;51.058;13.826;2023-04-15T04:30:31;7.40;99.90
64620;DHT22;51029;51.058;13.826;2023-04-15T04:32:57;7.50;99.90
64620;DHT22;51029;51.058;13.826;2023-04-15T04:35:22;7.50;99.90
64620;DHT22;51029;51.058;13.826;2023-04-15T04:37:48;7.50;99.90
64620;DHT22;51029;51.058;13.826;2023-04-15T04:40:14;7.50;99.90
64620;DHT22;51029;51.058;13.826;2023-04-15T04:42:39;7.50;99.90
64620;DHT22;51029;51.058;13.826;2023-04-15T04:45:05;7.50;99.90
64620;DHT22;51029;51.058;13.826;2023-04-15T04:47:31;7.50;99.90
64620;DHT22;51029;51.058;13.826;2023-04-15T04:49:57;7.60;99.90
64620;DHT22;51029;51.058;13.826;2023-04-15T04:52:22;7.50;99.90
64620;DHT22;51029;51.058;13.826;2023-04-15T04:54:48;7.50;99.90
64620;DHT22;51029;51.058;13.826;2023-04-15T04:57:13;7.50;99.90
64620;DHT22;51029;51.058;13.826;2023-04-15T04:59:39;7.50;99.90
64620;DHT22;51029;51.058;13.826;2023-04-15T05:02:06;7.60;99.90
64620;DHT22;51029;51.058;13.826;2023-04-15T05:04:31;7.70;99.90
64620;DHT22;51029;51.058;13.826;2023-04-15T05:06:57;7.70;99.90
64620;DHT22;51029;51.058;13.826;2023-04-15T05:09:23;7.70;99.90
64620;DHT22;51029;51.058;13.826;2023-04-15T05:11:49;7.70;99.90
64620;DHT22;51029;51.058;13.826;2023-04-15T05:14:15;7.60;99.90
64620;DHT22;51029;51.058;13.826;2023-04-15T05:16:40;7.70;99.90
64620;DHT22;51029;51.058;13.826;2023-04-15T05:19:06;7.70;99.90
64620;DHT22;51029;51.058;13.826;2023-04-15T05:21:32;7.80;99.90
64620;DHT22;51029;51.058;13.826;2023-04-15T05:23:57;7.80;99.90
64620;DHT22;51029;51.058;13.826;2023-04-15T05:26:23;7.90;99.90
64620;DHT22;51029;51.058;13.826;2023-04-15T05:28:49;7.80;99.90
64620;DHT22;51029;51.058;13.826;2023-04-15T05:31:15;7.80;99.90
64620;DHT22;51029;51.058;13.826;2023-04-15T05:33:40;7.90;99.90
64620;DHT22;51029;51.058;13.826;2023-04-15T05:36:06;7.90;99.90
64620;DHT22;51029;51.058;13.826;2023-04-15T05:38:31;7.90;99.90
64620;DHT22;51029;51.058;13.826;2023-04-15T05:40:57;7.80;99.90
64620;DHT22;51029;51.058;13.826;2023-04-15T05:43:23;7.90;99.90
64620;DHT22;51029;51.058;13.826;2023-04-15T05:45:48;7.80;99.90
64620;DHT22;51029;51.058;13.826;2023-04-15T05:48:14;7.80;99.90
64620;DHT22;51029;51.058;13.826;2023-04-15T05:50:40;7.90;99.90
64620;DHT22;51029;51.058;13.826;2023-04-15T05:53:07;7.90;99.90
64620;DHT22;51029;51.058;13.826;2023-04-15T05:55:33;7.90;99.90
64620;DHT22;51029;51.058;13.826;2023-04-15T05:57:58;7.90;99.90
64620;DHT22;51029;51.058;13.826;2023-04-15T06:00:24;7.90;99.90
64620;DHT22;51029;51.058;13.826;2023-04-15T06:02:50;8.00;99.90
64620;DHT22;51029;51.058;13.826;2023-04-15T06:05:15;8.00;99.90
64620;DHT22;51029;51.058;13.826;2023-04-15T06:07:41;8.10;99.90
64620;DHT22;51029;51.058;13.826;2023-04-15T06:10:08;8.00;99.90
64620;DHT22;51029;51.058;13.826;2023-04-15T06:12:34;8.00;99.90
64620;DHT22;51029;51.058;13.826;2023-04-15T06:14:59;8.00;99.90
64620;DHT22;51029;51.058;13.826;2023-04-15T06:17:25;8.10;99.90
64620;DHT22;51029;51.058;13.826;2023-04-15T06:19:51;8.10;99.90
64620;DHT22;51029;51.058;13.826;2023-04-15T06:22:21;8.10;99.90
64620;DHT22;51029;51.058;13.826;2023-04-15T06:24:47;8.20;99.90
64620;DHT22;51029;51.058;13.826;2023-04-15T06:27:15;8.20;99.90
64620;DHT22;51029;51.058;13.826;2023-04-15T06:29:40;8.20;99.90
64620;DHT22;51029;51.058;13.826;2023-04-15T06:32:06;8.30;99.90
64620;DHT22;51029;51.058;13.826;2023-04-15T06:34:32;8.30;99.90
64620;DHT22;51029;51.058;13.826;2023-04-15T06:36:57;8.40;99.90
64620;DHT22;51029;51.058;13.826;2023-04-15T06:39:23;8.40;99.90
64620;DHT22;51029;51.058;13.826;2023-04-15T06:41:48;8.40;99.90
64620;DHT22;51029;51.058;13.826;2023-04-15T06:44:14;8.50;99.90
64620;DHT22;51029;51.058;13.826;2023-04-15T06:46:40;8.60;99.90
64620;DHT22;51029;51.058;13.826;2023-04-15T06:49:06;8.60;99.90
64620;DHT22;51029;51.058;13.826;2023-04-15T06:51:31;8.70;99.90
64620;DHT22;51029;51.058;13.826;2023-04-15T06:53:57;8.70;99.90
64620;DHT22;51029;51.058;13.826;2023-04-15T06:56:22;8.80;99.90
64620;DHT22;51029;51.058;13.826;2023-04-15T06:58:48;8.80;99.90
64620;DHT22;51029;51.058;13.826;2023-04-15T07:01:13;8.90;99.90
64620;DHT22;51029;51.058;13.826;2023-04-15T07:03:39;9.00;99.90
64620;DHT22;51029;51.058;13.826;2023-04-15T07:06:06;9.00;99.90
64620;DHT22;51029;51.058;13.826;2023-04-15T07:08:32;9.10;99.90
64620;DHT22;51029;51.058;13.826;2023-04-15T07:10:59;9.10;99.90
64620;DHT22;51029;51.058;13.826;2023-04-15T07:13:25;9.00;99.90
64620;DHT22;51029;51.058;13.826;2023-04-15T07:15:50;8.90;99.90
64620;DHT22;51029;51.058;13.826;2023-04-15T07:18:16;8.90;99.90
64620;DHT22;51029;51.058;13.826;2023-04-15T07:20:42;8.90;99.90
64620;DHT22;51029;51.058;13.826;2023-04-15T07:23:08;8.90;99.90
64620;DHT22;51029;51.058;13.826;2023-04-15T07:25:33;9.00;99.90
64620;DHT22;51029;51.058;13.826;2023-04-15T07:27:59;9.00;99.90
64620;DHT22;51029;51.058;13.826;2023-04-15T07:30:24;9.10;99.90
64620;DHT22;51029;51.058;13.826;2023-04-15T07:32:50;9.20;99.90
64620;DHT22;51029;51.058;13.826;2023-04-15T07:35:15;9.30;99.90
64620;DHT22;51029;51.058;13.826;2023-04-15T07:37:41;9.50;99.90
64620;DHT22;51029;51.058;13.826;2023-04-15T07:40:08;9.50;99.90
64620;DHT22;51029;51.058;13.826;2023-04-15T07:42:34;9.60;99.90
64620;DHT22;51029;51.058;13.826;2023-04-15T07:44:59;9.70;99.90
64620;DHT22;51029;51.058;13.826;2023-04-15T07:47:25;9.80;99.90
64620;DHT22;51029;51.058;13.826;2023-04-15T07:49:51;9.90;99.90
64620;DHT22;51029;51.058;13.826;2023-04-15T07:52:17;10.00;99.90
64620;DHT22;51029;51.058;13.826;2023-04-15T07:54:43;10.30;99.90
64620;DHT22;51029;51.058;13.826;2023-04-15T07:57:09;10.40;99.90
64620;DHT22;51029;51.058;13.826;2023-04-15T07:59:34;10.60;99.90
64620;DHT22;51029;51.058;13.826;2023-04-15T08:02:00;10.70;99.90
64620;DHT22;51029;51.058;13.826;2023-04-15T08:04:26;10.80;99.90
64620;DHT22;51029;51.058;13.826;2023-04-15T08:06:52;11.00;99.90
64620;DHT22;51029;51.058;13.826;2023-04-15T08:09:19;11.00;99.90
64620;DHT22;51029;51.058;13.826;2023-04-15T08:11:48;11.00;99.90
64620;DHT22;51029;51.058;13.826;2023-04-15T08:14:13;11.00;99.90
64620;DHT22;51029;51.058;13.826;2023-04-15T08:16:39;10.90;99.90
64620;DHT22;51029;51.058;13.826;2023-04-15T08:19:04;10.90;99.90
64620;DHT22;51029;51.058;13.826;2023-04-15T08:21:30;11.10;99.90
64620;DHT22;51029;51.058;13.826;2023-04-15T08:23:56;11.30;99.90
64620;DHT22;51029;51.058;13.826;2023-04-15T08:26:21;11.40;99.90
64620;DHT22;51029;51.058;13.826;2023-04-15T08:28:47;11.10;99.90
64620;DHT22;51029;51.058;13.826;2023-04-15T08:31:14;11.00;99.90
64620;DHT22;51029;51.058;13.826;2023-04-15T08:33:40;11.20;99.90
64620;DHT22;51029;51.058;13.826;2023-04-15T08:36:06;11.20;99.90
64620;DHT22;51029;51.058;13.826;2023-04-15T08:38:32;11.40;99.90
64620;DHT22;51029;51.058;13.826;2023-04-15T08:41:03;11.40;99.90
64620;DHT22;51029;51.058;13.826;2023-04-15T08:43:33;11.20;99.90
64620;DHT22;51029;51.058;13.826;2023-04-15T08:46:00;11.00;99.90
64620;DHT22;51029;51.058;13.826;2023-04-15T08:48:32;10.80;99.90
64620;DHT22;51029;51.058;13.826;2023-04-15T08:50:57;10.70;99.90
64620;DHT22;51029;51.058;13.826;2023-04-15T08:53:23;10.50;99.90
64620;DHT22;51029;51.058;13.826;2023-04-15T08:55:51;10.40;99.90
64620;DHT22;51029;51.058;13.826;2023-04-15T08:58:17;10.20;99.90
64620;DHT22;51029;51.058;13.826;2023-04-15T09:00:43;10.10;99.90
64620;DHT22;51029;51.058;13.826;2023-04-15T09:03:08;10.10;99.90
64620;DHT22;51029;51.058;13.826;2023-04-15T09:05:35;10.10;99.90
64620;DHT22;51029;51.058;13.826;2023-04-15T09:08:02;10.30;99.90
64620;DHT22;51029;51.058;13.826;2023-04-15T09:10:28;10.20;99.90
64620;DHT22;51029;51.058;13.826;2023-04-15T09:12:55;10.20;99.90
64620;DHT22;51029;51.058;13.826;2023-04-15T09:15:20;10.30;99.90
64620;DHT22;51029;51.058;13.826;2023-04-15T09:17:46;10.40;99.90
64620;DHT22;51029;51.058;13.826;2023-04-15T09:20:14;10.50;99.90
64620;DHT22;51029;51.058;13.826;2023-04-15T09:22:41;10.40;99.90
64620;DHT22;51029;51.058;13.826;2023-04-15T09:27:56;10.30;99.90
64620;DHT22;51029;51.058;13.826;2023-04-15T09:30:22;10.40;99.90
64620;DHT22;51029;51.058;13.826;2023-04-15T09:32:53;10.60;99.90
64620;DHT22;51029;51.058;13.826;2023-04-15T09:35:20;10.70;99.90
64620;DHT22;51029;51.058;13.826;2023-04-15T09:37:46;10.80;99.90
64620;DHT22;51029;51.058;13.826;2023-04-15T09:40:12;10.60;99.90
64620;DHT22;51029;51.058;13.826;2023-04-15T09:42:54;10.60;99.90
64620;DHT22;51029;51.058;13.826;2023-04-15T09:45:20;10.60;99.90
64620;DHT22;51029;51.058;13.826;2023-04-15T09:47:46;10.60;99.90
64620;DHT22;51029;51.058;13.826;2023-04-15T09:50:12;10.60;99.90
64620;DHT22;51029;51.058;13.826;2023-04-15T09:52:42;10.70;99.90
64620;DHT22;51029;51.058;13.826;2023-04-15T09:55:08;10.90;99.90
64620;DHT22;51029;51.058;13.826;2023-04-15T09:57:35;11.10;99.90
64620;DHT22;51029;51.058;13.826;2023-04-15T10:00:05;11.10;99.90
64620;DHT22;51029;51.058;13.826;2023-04-15T10:02:34;11.00;99.90
64620;DHT22;51029;51.058;13.826;2023-04-15T10:05:01;11.00;99.90
64620;DHT22;51029;51.058;13.826;2023-04-15T10:07:27;10.80;99.90
64620;DHT22;51029;51.058;13.826;2023-04-15T10:09:53;10.80;99.90
64620;DHT22;51029;51.058;13.826;2023-04-15T10:12:19;10.70;99.90
64620;DHT22;51029;51.058;13.826;2023-04-15T10:14:57;10.50;99.90
64620;DHT22;51029;51.058;13.826;2023-04-15T10:17:26;10.60;99.90
64620;DHT22;51029;51.058;13.826;2023-04-15T10:19:53;10.70;99.90
64620;DHT22;51029;51.058;13.826;2023-04-15T10:22:21;10.60;99.90
64620;DHT22;51029;51.058;13.826;2023-04-15T10:24:47;10.60;99.90
64620;DHT22;51029;51.058;13.826;2023-04-15T10:27:15;10.70;99.90
64620;DHT22;51029;51.058;13.826;2023-04-15T10:29:42;10.80;99.90
64620;DHT22;51029;51.058;13.826;2023-04-15T10:32:08;10.80;99.90
64620;DHT22;51029;51.058;13.826;2023-04-15T10:34:34;10.70;99.90
64620;DHT22;51029;51.058;13.826;2023-04-15T10:37:01;10.70;99.90
64620;DHT22;51029;51.058;13.826;2023-04-15T10:39:39;10.60;99.90
64620;DHT22;51029;51.058;13.826;2023-04-15T10:42:07;10.60;99.90
64620;DHT22;51029;51.058;13.826;2023-04-15T10:44:35;10.60;99.90
64620;DHT22;51029;51.058;13.826;2023-04-15T10:47:06;10.60;99.90
64620;DHT22;51029;51.058;13.826;2023-04-15T10:49:44;10.70;99.90
64620;DHT22;51029;51.058;13.826;2023-04-15T10:52:10;11.00;99.90
64620;DHT22;51029;51.058;13.826;2023-04-15T10:54:36;11.10;99.90
64620;DHT22;51029;51.058;13.826;2023-04-15T10:59:35;11.30;99.90
64620;DHT22;51029;51.058;13.826;2023-04-15T11:07:31;12.20;99.90
64620;DHT22;51029;51.058;13.826;2023-04-15T11:09:57;12.40;99.90
64620;DHT22;51029;51.058;13.826;2023-04-15T11:12:35;12.50;99.90
64620;DHT22;51029;51.058;13.826;2023-04-15T11:15:24;12.40;99.90
64620;DHT22;51029;51.058;13.826;2023-04-15T11:17:51;12.40;99.90
64620;DHT22;51029;51.058;13.826;2023-04-15T11:20:17;12.40;99.90
64620;DHT22;51029;51.058;13.826;2023-04-15T11:22:50;12.10;99.90
64620;DHT22;51029;51.058;13.826;2023-04-15T11:25:27;11.90;99.90
64620;DHT22;51029;51.058;13.826;2023-04-15T11:27:54;11.90;99.90
64620;DHT22;51029;51.058;13.826;2023-04-15T11:30:25;12.00;99.90
64620;DHT22;51029;51.058;13.826;2023-04-15T11:32:53;12.20;99.90
64620;DHT22;51029;51.058;13.826;2023-04-15T11:35:19;11.90;99.90
64620;DHT22;51029;51.058;13.826;2023-04-15T11:37:45;11.90;99.90
64620;DHT22;51029;51.058;13.826;2023-04-15T11:40:11;12.10;99.90
64620;DHT22;51029;51.058;13.826;2023-04-15T11:42:38;12.30;99.90
64620;DHT22;51029;51.058;13.826;2023-04-15T11:45:11;12.50;99.90
64620;DHT22;51029;51.058;13.826;2023-04-15T11:47:41;12.60;99.90
64620;DHT22;51029;51.058;13.826;2023-04-15T11:50:20;12.50;99.90
64620;DHT22;51029;51.058;13.826;2023-04-15T11:52:53;12.10;99.90
64620;DHT22;51029;51.058;13.826;2023-04-15T11:55:19;12.20;99.90
64620;DHT22;51029;51.058;13.826;2023-04-15T11:57:45;12.20;99.90
64620;DHT22;51029;51.058;13.826;2023-04-15T12:00:11;12.30;99.90
64620;DHT22;51029;51.058;13.826;2023-04-15T12:02:38;12.40;99.90
64620;DHT22;51029;51.058;13.826;2023-04-15T12:05:07;12.30;99.90
64620;DHT22;51029;51.058;13.826;2023-04-15T12:07:32;12.50;99.90
64620;DHT22;51029;51.058;13.826;2023-04-15T12:09:59;12.40;99.90
64620;DHT22;51029;51.058;13.826;2023-04-15T12:12:27;12.50;99.90
64620;DHT22;51029;51.058;13.826;2023-04-15T12:14:55;12.40;99.90
64620;DHT22;51029;51.058;13.826;2023-04-15T12:17:22;12.40;99.90
64620;DHT22;51029;51.058;13.826;2023-04-15T12:19:47;12.30;99.90
64620;DHT22;51029;51.058;13.826;2023-04-15T12:22:15;12.30;99.90
64620;DHT22;51029;51.058;13.826;2023-04-15T12:24:43;12.40;99.90
64620;DHT22;51029;51.058;13.826;2023-04-15T12:27:12;12.60;99.90
64620;DHT22;51029;51.058;13.826;2023-04-15T12:29:39;12.80;99.90
64620;DHT22;51029;51.058;13.826;2023-04-15T12:32:12;12.80;99.90
64620;DHT22;51029;51.058;13.826;2023-04-15T12:37:06;13.00;99.90
64620;DHT22;51029;51.058;13.826;2023-04-15T12:39:39;12.90;99.90
64620;DHT22;51029;51.058;13.826;2023-04-15T12:42:06;12.70;99.90
64620;DHT22;51029;51.058;13.826;2023-04-15T12:44:32;12.60;99.90
64620;DHT22;51029;51.058;13.826;2023-04-15T12:46:58;12.70;99.90
64620;DHT22;51029;51.058;13.826;2023-04-15T12:49:25;12.60;99.90
64620;DHT22;51029;51.058;13.826;2023-04-15T12:51:52;12.50;99.90
64620;DHT22;51029;51.058;13.826;2023-04-15T12:54:19;12.40;99.90
64620;DHT22;51029;51.058;13.826;2023-04-15T12:56:46;12.20;99.90
64620;DHT22;51029;51.058;13.826;2023-04-15T12:59:13;12.30;99.90
64620;DHT22;51029;51.058;13.826;2023-04-15T13:01:39;12.30;99.90
64620;DHT22;51029;51.058;13.826;2023-04-15T13:04:06;12.40;99.90
64620;DHT22;51029;51.058;13.826;2023-04-15T13:06:31;12.50;99.90
64620;DHT22;51029;51.058;13.826;2023-04-15T13:09:00;12.10;99.90
64620;DHT22;51029;51.058;13.826;2023-04-15T13:11:27;12.10;99.90
64620;DHT22;51029;51.058;13.826;2023-04-15T13:13:55;12.10;99.90
64620;DHT22;51029;51.058;13.826;2023-04-15T13:16:21;12.10;99.90
64620;DHT22;51029;51.058;13.826;2023-04-15T13:18:47;12.30;99.90
64620;DHT22;51029;51.058;13.826;2023-04-15T13:21:13;12.50;99.90
64620;DHT22;51029;51.058;13.826;2023-04-15T13:23:40;12.40;99.90
64620;DHT22;51029;51.058;13.826;2023-04-15T13:26:06;12.40;99.90
64620;DHT22;51029;51.058;13.826;2023-04-15T13:28:32;12.50;99.90
64620;DHT22;51029;51.058;13.826;2023-04-15T13:30:58;12.70;99.90
64620;DHT22;51029;51.058;13.826;2023-04-15T13:33:24;12.90;99.90
64620;DHT22;51029;51.058;13.826;2023-04-15T13:35:50;13.00;99.90
64620;DHT22;51029;51.058;13.826;2023-04-15T13:38:15;12.90;99.90
64620;DHT22;51029;51.058;13.826;2023-04-15T13:40:41;13.10;99.90
64620;DHT22;51029;51.058;13.826;2023-04-15T13:43:06;13.30;99.90
64620;DHT22;51029;51.058;13.826;2023-04-15T13:45:32;13.50;99.90
64620;DHT22;51029;51.058;13.826;2023-04-15T13:47:58;13.80;99.90
64620;DHT22;51029;51.058;13.826;2023-04-15T13:50:23;13.90;99.90
64620;DHT22;51029;51.058;13.826;2023-04-15T13:52:49;13.90;99.90
64620;DHT22;51029;51.058;13.826;2023-04-15T13:55:14;13.90;99.90
64620;DHT22;51029;51.058;13.826;2023-04-15T13:57:40;13.60;99.90
64620;DHT22;51029;51.058;13.826;2023-04-15T14:00:06;13.70;99.90
64620;DHT22;51029;51.058;13.826;2023-04-15T14:02:32;13.60;99.90
64620;DHT22;51029;51.058;13.826;2023-04-15T14:04:57;13.50;99.90
64620;DHT22;51029;51.058;13.826;2023-04-15T14:07:23;13.70;99.90
64620;DHT22;51029;51.058;13.826;2023-04-15T14:09:48;13.70;99.90
64620;DHT22;51029;51.058;13.826;2023-04-15T14:12:14;13.70;99.90
64620;DHT22;51029;51.058;13.826;2023-04-15T14:14:40;13.70;99.90
64620;DHT22;51029;51.058;13.826;2023-04-15T14:17:06;13.90;99.90
64620;DHT22;51029;51.058;13.826;2023-04-15T14:19:32;14.00;99.90
64620;DHT22;51029;51.058;13.826;2023-04-15T14:21:58;14.10;99.90
64620;DHT22;51029;51.058;13.826;2023-04-15T14:24:24;14.10;99.90
64620;DHT22;51029;51.058;13.826;2023-04-15T14:26:49;14.10;99.90
64620;DHT22;51029;51.058;13.826;2023-04-15T14:29:15;14.10;99.90
64620;DHT22;51029;51.058;13.826;2023-04-15T14:31:41;14.10;99.90
64620;DHT22;51029;51.058;13.826;2023-04-15T14:34:09;14.10;99.90
64620;DHT22;51029;51.058;13.826;2023-04-15T14:36:35;13.90;99.90
64620;DHT22;51029;51.058;13.826;2023-04-15T14:39:00;13.80;99.90
64620;DHT22;51029;51.058;13.826;2023-04-15T14:41:26;13.90;99.90
64620;DHT22;51029;51.058;13.826;2023-04-15T14:43:52;14.10;99.90
64620;DHT22;51029;51.058;13.826;2023-04-15T14:46:17;14.20;99.90
64620;DHT22;51029;51.058;13.826;2023-04-15T14:48:43;14.30;99.90
64620;DHT22;51029;51.058;13.826;2023-04-15T14:51:08;14.40;99.90
64620;DHT22;51029;51.058;13.826;2023-04-15T14:53:34;14.50;99.90
64620;DHT22;51029;51.058;13.826;2023-04-15T14:56:00;14.90;99.90
64620;DHT22;51029;51.058;13.826;2023-04-15T14:58:25;15.20;99.90
64620;DHT22;51029;51.058;13.826;2023-04-15T15:00:51;15.50;99.90
64620;DHT22;51029;51.058;13.826;2023-04-15T15:03:17;15.80;99.90
64620;DHT22;51029;51.058;13.826;2023-04-15T15:05:44;15.70;99.90
64620;DHT22;51029;51.058;13.826;2023-04-15T15:08:11;15.50;99.90
64620;DHT22;51029;51.058;13.826;2023-04-15T15:10:38;15.20;99.90
64620;DHT22;51029;51.058;13.826;2023-04-15T15:13:05;15.30;99.90
64620;DHT22;51029;51.058;13.826;2023-04-15T15:15:32;15.20;99.90
64620;DHT22;51029;51.058;13.826;2023-04-15T15:17:58;15.40;99.90
64620;DHT22;51029;51.058;13.826;2023-04-15T15:20:24;15.50;99.90
64620;DHT22;51029;51.058;13.826;2023-04-15T15:22:50;15.60;99.90
64620;DHT22;51029;51.058;13.826;2023-04-15T15:25:15;15.50;99.90
64620;DHT22;51029;51.058;13.826;2023-04-15T15:27:41;15.40;99.90
64620;DHT22;51029;51.058;13.826;2023-04-15T15:30:07;15.00;99.90
64620;DHT22;51029;51.058;13.826;2023-04-15T15:32:33;15.00;99.90